Time;durP1;ratioP1;P1;durP2;ratioP2;P2;SDS_P1;SDS_P2;PMS_P1;PMS_P2;Temp;Humidity;BMP_temperature;BMP_pressure;BME280_temperature;BME280_humidity;BME280_pressure;Samples;Min_cycle;Max_cycle;Signal;HPM_P1;HPM_P2
2023/06/10 00:01:06;;;;;;;9.75;6.55;;;20.70;84.00;;;;;;5032327;28;20029;-48
2023/06/10 00:03:52;;;;;;;10.73;7.13;;;20.60;83.60;;;;;;5032530;28;20068;-49
2023/06/10 00:06:39;;;;;;;11.02;6.07;;;20.50;84.30;;;;;;5031537;28;20057;-47
2023/06/10 00:09:25;;;;;;;9.73;5.90;;;20.40;84.90;;;;;;5020965;28;20038;-49
2023/06/10 00:12:11;;;;;;;10.90;6.07;;;20.30;85.60;;;;;;5013000;28;20053;-49
2023/06/10 00:14:57;;;;;;;8.18;5.47;;;20.30;85.60;;;;;;5012745;28;20077;-49
2023/06/10 00:17:43;;;;;;;8.98;6.13;;;20.20;85.70;;;;;;5012247;28;20068;-49
2023/06/10 00:20:30;;;;;;;7.70;5.72;;;20.10;86.20;;;;;;5013318;28;20057;-50
2023/06/10 00:23:17;;;;;;;8.07;5.72;;;20.10;86.90;;;;;;5012369;28;20030;-49
2023/06/10 00:26:03;;;;;;;9.68;6.13;;;20.00;87.20;;;;;;5011240;28;20085;-50
2023/06/10 00:28:49;;;;;;;11.10;6.18;;;20.10;87.20;;;;;;5011844;28;20037;-51
2023/06/10 00:31:37;;;;;;;8.07;6.03;;;20.10;87.00;;;;;;5011956;28;20136;-48
2023/06/10 00:34:24;;;;;;;12.70;6.70;;;20.00;87.20;;;;;;5026150;28;20061;-50
2023/06/10 00:37:10;;;;;;;10.57;6.60;;;20.00;87.60;;;;;;5031019;28;20044;-49
2023/06/10 00:39:56;;;;;;;8.48;5.80;;;19.90;87.90;;;;;;5031617;28;20417;-48
2023/06/10 00:42:42;;;;;;;9.10;6.55;;;19.80;88.10;;;;;;5032665;28;20398;-50
2023/06/10 00:45:28;;;;;;;11.25;6.57;;;19.70;88.80;;;;;;5030992;28;20044;-49
2023/06/10 00:48:14;;;;;;;8.75;5.85;;;19.60;88.90;;;;;;5032232;28;20103;-49
2023/06/10 00:51:00;;;;;;;9.15;5.97;;;19.60;89.00;;;;;;5031178;28;20453;-51
2023/06/10 00:53:47;;;;;;;9.30;5.93;;;19.50;89.70;;;;;;5032551;28;20033;-49
2023/06/10 00:56:34;;;;;;;8.85;5.70;;;19.50;89.50;;;;;;5031922;28;20037;-49
2023/06/10 00:59:20;;;;;;;9.57;5.72;;;19.50;89.70;;;;;;5032049;28;20026;-49
2023/06/10 01:02:07;;;;;;;9.23;5.63;;;19.50;89.80;;;;;;5031390;28;20516;-49
2023/06/10 01:04:53;;;;;;;11.23;6.53;;;19.50;89.60;;;;;;5020161;28;20076;-49
2023/06/10 01:07:50;;;;;;;8.27;5.80;;;19.40;90.20;;;;;;5010886;28;20026;-52
2023/06/10 01:10:43;;;;;;;10.70;6.78;;;19.30;90.50;;;;;;5011659;28;20037;-50
2023/06/10 01:13:31;;;;;;;11.65;6.43;;;19.10;90.70;;;;;;5011582;28;20058;-50
2023/06/10 01:16:19;;;;;;;11.05;6.13;;;19.10;90.80;;;;;;5011321;28;20104;-49
2023/06/10 01:19:06;;;;;;;9.43;6.57;;;19.10;91.00;;;;;;5017328;28;20064;-48
2023/06/10 01:21:54;;;;;;;9.90;6.65;;;19.00;91.10;;;;;;5032303;28;20026;-51
2023/06/10 01:24:41;;;;;;;11.10;5.82;;;19.00;91.40;;;;;;5032275;28;20024;-49
2023/06/10 01:27:32;;;;;;;9.73;6.35;;;18.90;91.80;;;;;;5032000;28;20022;-51
2023/06/10 01:30:23;;;;;;;9.63;6.05;;;18.80;92.00;;;;;;5031204;28;20486;-49
2023/06/10 01:33:10;;;;;;;9.10;6.30;;;18.80;92.10;;;;;;5029293;28;20502;-51
2023/06/10 01:35:58;;;;;;;10.32;6.50;;;18.90;92.20;;;;;;5029845;28;20025;-53
2023/06/10 01:38:46;;;;;;;9.75;6.53;;;18.70;92.60;;;;;;5030193;28;20387;-50
2023/06/10 01:41:32;;;;;;;11.30;7.13;;;18.60;93.00;;;;;;5011592;28;20026;-49
2023/06/10 01:44:22;;;;;;;9.93;6.63;;;18.60;93.40;;;;;;5011999;28;20491;-52
2023/06/10 01:47:09;;;;;;;12.88;6.95;;;18.50;93.80;;;;;;5013024;28;20026;-49
2023/06/10 01:49:55;;;;;;;10.70;7.00;;;18.40;94.20;;;;;;5014972;28;20081;-49
2023/06/10 01:52:40;;;;;;;15.25;6.40;;;18.30;94.50;;;;;;5014691;28;20038;-51
2023/06/10 01:55:26;;;;;;;10.88;6.88;;;18.30;94.90;;;;;;5025444;28;20068;-49
2023/06/10 01:58:12;;;;;;;12.40;7.43;;;18.20;95.10;;;;;;5034660;28;20029;-49
2023/06/10 02:00:58;;;;;;;9.48;7.30;;;18.20;95.50;;;;;;5033221;28;20033;-48
2023/06/10 02:03:44;;;;;;;10.60;7.03;;;18.00;96.00;;;;;;5035371;28;20029;-49
2023/06/10 02:06:30;;;;;;;10.07;6.97;;;17.90;96.50;;;;;;5033963;28;20029;-49
2023/06/10 02:09:18;;;;;;;12.40;7.40;;;18.00;96.70;;;;;;5033468;28;20045;-51
2023/06/10 02:12:05;;;;;;;11.93;8.60;;;18.00;96.90;;;;;;5033536;28;20033;-49
2023/06/10 02:14:51;;;;;;;17.13;10.45;;;17.80;97.30;;;;;;5035167;28;20040;-49
2023/06/10 02:17:38;;;;;;;11.60;8.70;;;17.80;97.80;;;;;;5033075;28;20041;-50
2023/06/10 02:20:23;;;;;;;12.43;7.70;;;17.70;98.30;;;;;;5033219;28;20064;-48
2023/06/10 02:23:09;;;;;;;11.48;7.68;;;17.40;98.90;;;;;;5033719;28;20030;-49
2023/06/10 02:25:55;;;;;;;15.82;7.95;;;17.50;99.20;;;;;;5033605;28;20032;-51
2023/06/10 02:28:44;;;;;;;11.30;7.38;;;17.50;99.30;;;;;;5022251;28;20033;-49
2023/06/10 02:31:30;;;;;;;15.50;8.30;;;17.50;99.60;;;;;;5034021;28;20129;-49
2023/06/10 02:34:16;;;;;;;13.02;7.40;;;17.40;99.90;;;;;;5016561;28;20138;-50
2023/06/10 02:37:02;;;;;;;14.57;8.10;;;17.40;99.90;;;;;;5014294;28;20030;-49
2023/06/10 02:39:48;;;;;;;15.13;8.23;;;17.20;99.90;;;;;;5013337;28;20037;-48
2023/06/10 02:42:34;;;;;;;9.85;7.53;;;17.10;99.90;;;;;;5013639;28;20069;-48
2023/06/10 02:45:20;;;;;;;11.98;8.15;;;17.20;99.90;;;;;;5013168;28;20487;-49
2023/06/10 02:48:06;;;;;;;13.20;7.78;;;17.10;99.90;;;;;;5013571;28;20410;-48
2023/06/10 02:50:52;;;;;;;14.00;8.40;;;17.10;99.90;;;;;;5013050;28;20076;-48
2023/06/10 02:53:38;;;;;;;12.00;8.10;;;17.00;99.90;;;;;;5013740;28;20034;-50
2023/06/10 02:56:25;;;;;;;15.43;8.07;;;17.00;99.90;;;;;;5026259;28;20501;-51
2023/06/10 02:59:11;;;;;;;12.63;7.93;;;16.90;99.90;;;;;;5034117;28;20116;-49
2023/06/10 03:01:59;;;;;;;10.35;7.75;;;16.80;99.90;;;;;;5033247;28;20540;-48
2023/06/10 03:04:45;;;;;;;9.40;7.93;;;16.80;99.90;;;;;;5034442;28;20018;-49
2023/06/10 03:07:31;;;;;;;10.63;7.95;;;16.80;99.90;;;;;;5032803;28;20072;-48
2023/06/10 03:10:17;;;;;;;13.13;8.57;;;17.00;99.90;;;;;;5032691;28;20116;-48
2023/06/10 03:13:03;;;;;;;12.30;8.05;;;16.90;99.90;;;;;;5032522;28;20057;-50
2023/06/10 03:15:49;;;;;;;12.65;8.77;;;16.80;99.90;;;;;;5033683;28;20025;-51
2023/06/10 03:18:35;;;;;;;14.15;8.55;;;16.80;99.90;;;;;;5032223;28;20064;-48
2023/06/10 03:21:21;;;;;;;11.52;8.20;;;16.80;99.90;;;;;;5034153;28;20025;-50
2023/06/10 03:24:07;;;;;;;10.77;8.10;;;16.90;99.90;;;;;;5015053;28;20065;-48
2023/06/10 03:26:53;;;;;;;13.60;8.60;;;16.90;99.90;;;;;;5011722;28;20034;-49
2023/06/10 03:29:39;;;;;;;11.70;8.35;;;16.90;99.90;;;;;;5013008;28;20469;-49
2023/06/10 03:32:25;;;;;;;11.70;8.02;;;17.00;99.90;;;;;;5013520;28;20034;-48
2023/06/10 03:35:11;;;;;;;15.18;8.85;;;17.00;99.90;;;;;;5013334;28;20529;-52
2023/06/10 03:37:58;;;;;;;9.75;8.07;;;17.10;99.90;;;;;;5022749;28;20411;-49
2023/06/10 03:40:44;;;;;;;12.45;9.15;;;17.00;99.90;;;;;;5032350;28;20092;-49
2023/06/10 03:43:31;;;;;;;15.35;8.95;;;16.80;99.90;;;;;;5033138;28;20103;-50
2023/06/10 03:46:17;;;;;;;10.70;8.02;;;16.80;99.90;;;;;;5033653;28;20036;-52
2023/06/10 03:49:03;;;;;;;14.45;8.65;;;16.90;99.90;;;;;;5033361;28;20061;-49
2023/06/10 03:51:49;;;;;;;14.30;9.07;;;16.90;99.90;;;;;;5015891;28;20040;-50
2023/06/10 03:54:35;;;;;;;16.45;8.70;;;16.70;99.90;;;;;;5013070;28;20076;-48
2023/06/10 03:57:21;;;;;;;14.73;8.77;;;16.70;99.90;;;;;;5013125;28;20037;-50
2023/06/10 04:00:11;;;;;;;11.65;8.70;;;16.70;99.90;;;;;;5012415;28;20081;-50
2023/06/10 04:02:57;;;;;;;16.83;9.20;;;16.70;99.90;;;;;;5013716;28;20022;-49
2023/06/10 04:05:43;;;;;;;13.65;9.07;;;16.70;99.90;;;;;;5012217;28;20577;-49
2023/06/10 04:08:31;;;;;;;12.30;8.48;;;16.80;99.90;;;;;;5012941;28;20065;-51
2023/06/10 04:11:17;;;;;;;14.70;10.00;;;16.70;99.90;;;;;;5026005;28;20037;-49
2023/06/10 04:14:03;;;;;;;15.90;9.27;;;16.70;99.90;;;;;;5033182;28;20383;-49
2023/06/10 04:16:50;;;;;;;14.77;9.13;;;16.60;99.90;;;;;;5033363;28;20029;-49
2023/06/10 04:19:36;;;;;;;15.00;8.48;;;16.80;99.90;;;;;;5033027;28;20037;-50
2023/06/10 04:22:22;;;;;;;13.20;8.63;;;16.70;99.90;;;;;;5031238;28;20017;-49
2023/06/10 04:25:09;;;;;;;16.27;9.82;;;16.80;99.90;;;;;;5033079;28;20065;-48
2023/06/10 04:27:55;;;;;;;13.98;8.75;;;16.60;99.90;;;;;;5031723;28;20469;-51
2023/06/10 04:30:41;;;;;;;13.40;8.73;;;16.40;99.90;;;;;;5030102;28;20033;-48
2023/06/10 04:33:28;;;;;;;16.92;8.93;;;16.50;99.90;;;;;;5022642;28;20109;-48
2023/06/10 04:36:14;;;;;;;12.93;8.75;;;16.50;99.90;;;;;;5012164;28;20414;-47
2023/06/10 04:39:01;;;;;;;12.93;9.57;;;16.50;99.90;;;;;;5012628;28;20030;-47
2023/06/10 04:41:47;;;;;;;12.13;9.95;;;16.50;99.90;;;;;;5012239;28;20029;-49
2023/06/10 04:44:33;;;;;;;15.10;9.65;;;16.40;99.90;;;;;;5029848;28;20041;-53
2023/06/10 04:47:20;;;;;;;13.52;8.98;;;16.50;99.90;;;;;;5031319;28;20048;-50
2023/06/10 04:50:06;;;;;;;17.13;9.52;;;16.60;99.90;;;;;;5033008;28;20030;-48
2023/06/10 04:52:52;;;;;;;13.10;9.80;;;16.70;99.90;;;;;;5027768;28;20117;-49
2023/06/10 04:55:38;;;;;;;17.20;10.27;;;16.70;99.90;;;;;;5012507;28;20030;-48
2023/06/10 04:58:24;;;;;;;12.38;8.68;;;16.70;99.90;;;;;;5011837;28;20045;-49
2023/06/10 05:01:10;;;;;;;12.07;8.88;;;16.90;99.90;;;;;;5010732;28;20038;-52
2023/06/10 05:03:56;;;;;;;17.88;9.57;;;17.00;99.90;;;;;;5011372;28;20034;-52
2023/06/10 05:06:42;;;;;;;16.60;9.40;;;17.10;99.90;;;;;;5011955;28;20026;-49
2023/06/10 05:09:28;;;;;;;14.77;9.48;;;17.00;99.90;;;;;;5012471;28;20392;-49
2023/06/10 05:12:14;;;;;;;15.32;9.98;;;16.90;99.90;;;;;;5011298;28;20569;-51
2023/06/10 05:15:00;;;;;;;16.05;10.18;;;16.80;99.90;;;;;;5012544;28;20464;-51
2023/06/10 05:17:46;;;;;;;15.00;9.98;;;16.70;99.90;;;;;;5012171;28;20409;-48
2023/06/10 05:20:32;;;;;;;14.02;9.60;;;16.80;99.90;;;;;;5020418;28;20018;-48
2023/06/10 05:23:17;;;;;;;17.23;10.57;;;16.60;99.90;;;;;;5034108;28;20565;-50
2023/06/10 05:26:03;;;;;;;16.42;9.63;;;16.60;99.90;;;;;;5034904;28;20048;-50
2023/06/10 05:28:49;;;;;;;16.38;10.73;;;16.60;99.90;;;;;;5035840;28;20108;-47
2023/06/10 05:31:35;;;;;;;16.30;10.98;;;16.40;99.90;;;;;;5034475;28;20037;-49
2023/06/10 05:34:21;;;;;;;15.10;10.10;;;16.40;99.90;;;;;;5034840;28;20075;-50
2023/06/10 05:37:07;;;;;;;13.80;9.95;;;16.70;99.90;;;;;;5034274;28;20065;-48
2023/06/10 05:39:53;;;;;;;17.10;10.32;;;16.80;99.90;;;;;;5031127;28;20113;-48
2023/06/10 05:42:39;;;;;;;16.42;10.20;;;16.90;99.90;;;;;;5014116;28;20075;-48
2023/06/10 05:45:25;;;;;;;15.63;9.68;;;17.00;99.90;;;;;;5013968;28;20022;-47
2023/06/10 05:48:11;;;;;;;17.17;11.77;;;17.00;99.90;;;;;;5014622;28;20438;-48
2023/06/10 05:50:57;;;;;;;14.10;10.60;;;17.10;99.90;;;;;;5026037;28;20033;-48
2023/06/10 05:53:42;;;;;;;16.42;10.77;;;16.80;99.90;;;;;;5034229;28;20033;-50
2023/06/10 05:56:29;;;;;;;14.20;10.63;;;16.90;99.90;;;;;;5033997;28;20512;-51
2023/06/10 05:59:15;;;;;;;19.58;11.52;;;16.90;99.90;;;;;;5034341;28;20486;-50
2023/06/10 06:02:01;;;;;;;16.30;10.50;;;17.00;99.90;;;;;;5015743;28;20029;-50
2023/06/10 06:04:47;;;;;;;15.07;10.65;;;17.00;99.90;;;;;;5015824;28;20029;-49
2023/06/10 06:07:33;;;;;;;18.77;11.40;;;17.20;99.90;;;;;;5014402;28;20425;-49
2023/06/10 06:10:19;;;;;;;15.43;10.93;;;17.20;99.90;;;;;;5016521;28;20065;-51
2023/06/10 06:13:04;;;;;;;15.40;9.80;;;17.30;99.90;;;;;;5016944;28;20548;-49
2023/06/10 06:15:50;;;;;;;16.95;11.05;;;17.30;99.90;;;;;;5019514;28;20033;-49
2023/06/10 06:18:36;;;;;;;17.20;10.68;;;17.10;99.90;;;;;;5035644;28;20131;-49
2023/06/10 06:21:22;;;;;;;14.98;10.57;;;17.30;99.90;;;;;;5033237;28;20107;-50
2023/06/10 06:24:08;;;;;;;18.40;11.15;;;17.40;99.90;;;;;;5034210;28;20112;-49
2023/06/10 06:26:54;;;;;;;16.23;10.48;;;17.50;99.90;;;;;;5033411;28;20382;-49
2023/06/10 06:29:40;;;;;;;18.10;11.32;;;17.60;99.90;;;;;;5029150;28;20040;-49
2023/06/10 06:32:27;;;;;;;16.42;10.73;;;17.80;99.90;;;;;;5025658;28;20026;-51
2023/06/10 06:35:13;;;;;;;16.48;11.63;;;17.90;99.90;;;;;;5013971;28;20108;-50
2023/06/10 06:37:59;;;;;;;16.60;11.20;;;18.10;99.90;;;;;;5013801;28;20030;-48
2023/06/10 06:40:45;;;;;;;14.75;10.80;;;17.80;99.90;;;;;;5026822;28;20585;-48
2023/06/10 06:43:31;;;;;;;15.02;11.18;;;17.90;99.90;;;;;;5034090;28;20029;-50
2023/06/10 06:46:17;;;;;;;17.13;11.30;;;18.00;99.90;;;;;;5032463;28;20413;-50
2023/06/10 06:49:03;;;;;;;16.10;10.10;;;18.10;99.90;;;;;;5033254;28;20033;-50
2023/06/10 06:51:49;;;;;;;16.30;11.60;;;18.30;99.90;;;;;;5012922;28;20030;-48
2023/06/10 06:54:35;;;;;;;15.63;11.07;;;18.30;99.90;;;;;;5013080;28;20053;-49
2023/06/10 06:57:23;;;;;;;16.42;11.60;;;18.20;99.90;;;;;;5028792;28;20379;-48
2023/06/10 07:00:12;;;;;;;14.73;11.20;;;18.30;99.90;;;;;;5034391;28;20034;-52
2023/06/10 07:02:58;;;;;;;16.67;11.65;;;18.10;99.90;;;;;;5032986;28;20105;-50
2023/06/10 07:05:44;;;;;;;15.30;11.23;;;18.30;99.90;;;;;;5035934;28;20049;-51
2023/06/10 07:08:30;;;;;;;16.25;11.65;;;18.40;99.90;;;;;;5037548;28;20034;-52
2023/06/10 07:11:17;;;;;;;18.30;11.40;;;18.70;99.90;;;;;;5036467;28;20398;-51
2023/06/10 07:14:03;;;;;;;16.63;11.50;;;18.70;99.90;;;;;;5037281;28;20025;-48
2023/06/10 07:16:49;;;;;;;17.95;11.88;;;18.80;99.90;;;;;;5019016;28;20045;-48
2023/06/10 07:19:35;;;;;;;16.33;12.23;;;19.00;99.90;;;;;;5031897;28;20033;-51
2023/06/10 07:22:21;;;;;;;19.90;11.93;;;18.80;99.90;;;;;;5033019;28;20021;-50
2023/06/10 07:25:07;;;;;;;16.70;11.98;;;18.90;99.90;;;;;;5032302;28;20025;-47
2023/06/10 07:27:53;;;;;;;20.13;12.90;;;19.00;99.90;;;;;;5033675;28;20112;-51
2023/06/10 07:30:39;;;;;;;16.50;11.43;;;19.10;99.90;;;;;;5017834;28;20026;-53
2023/06/10 07:33:25;;;;;;;18.33;11.85;;;19.20;99.90;;;;;;5027582;28;20510;-52
2023/06/10 07:36:11;;;;;;;16.98;11.63;;;19.30;99.90;;;;;;5031760;28;20034;-51
2023/06/10 07:38:57;;;;;;;16.42;13.80;;;19.30;99.90;;;;;;5021403;28;20041;-52
2023/06/10 07:41:43;;;;;;;15.93;12.50;;;19.40;99.90;;;;;;5031437;28;20036;-48
2023/06/10 07:44:29;;;;;;;15.05;11.90;;;19.50;99.90;;;;;;5032017;28;20025;-50
2023/06/10 07:47:15;;;;;;;16.45;12.20;;;19.60;99.90;;;;;;5031647;28;20044;-48
2023/06/10 07:50:01;;;;;;;15.82;11.40;;;19.50;99.90;;;;;;5032308;28;20025;-54
2023/06/10 07:52:47;;;;;;;18.00;12.75;;;19.70;99.90;;;;;;5033127;28;20025;-49
2023/06/10 07:55:33;;;;;;;13.50;11.75;;;19.90;99.90;;;;;;5031300;28;20037;-47
2023/06/10 07:58:19;;;;;;;18.48;12.70;;;20.00;99.90;;;;;;5027292;28;20123;-50
2023/06/10 08:01:05;;;;;;;16.73;12.60;;;20.00;99.90;;;;;;5028318;28;20086;-54
2023/06/10 08:03:51;;;;;;;15.88;12.45;;;20.10;99.90;;;;;;5026928;28;20025;-55
2023/06/10 08:06:37;;;;;;;18.55;13.13;;;20.30;99.90;;;;;;5021542;28;21348;-51
2023/06/10 08:09:23;;;;;;;16.58;12.45;;;20.20;99.90;;;;;;5025120;28;20075;-49
2023/06/10 08:12:09;;;;;;;16.10;12.77;;;20.30;99.90;;;;;;5023583;28;20112;-50
2023/06/10 08:14:55;;;;;;;20.63;13.05;;;20.30;99.90;;;;;;5025541;28;20035;-50
2023/06/10 08:17:42;;;;;;;13.70;12.18;;;20.30;99.90;;;;;;5027333;28;20036;-47
2023/06/10 08:20:27;;;;;;;15.38;13.30;;;20.40;99.90;;;;;;5003390;28;20049;-52
2023/06/10 08:23:14;;;;;;;15.15;13.07;;;20.50;99.90;;;;;;5021363;28;20422;-47
2023/06/10 08:26:00;;;;;;;19.05;14.20;;;20.60;99.90;;;;;;5021896;28;20017;-54
2023/06/10 08:28:46;;;;;;;15.52;13.65;;;20.60;99.90;;;;;;5032471;28;20036;-52
2023/06/10 08:31:32;;;;;;;16.00;13.82;;;20.80;99.90;;;;;;5022573;28;20022;-50
2023/06/10 08:34:18;;;;;;;17.65;12.77;;;21.10;99.90;;;;;;5017637;28;20018;-50
2023/06/10 08:37:04;;;;;;;15.57;12.43;;;21.40;99.90;;;;;;5023183;28;20025;-46
2023/06/10 08:39:50;;;;;;;15.63;12.35;;;21.50;99.70;;;;;;5016782;28;20029;-48
2023/06/10 08:42:50;;;;;;;16.90;13.32;;;21.70;99.00;;;;;;5023254;28;20076;-50
2023/06/10 08:45:37;;;;;;;17.45;14.13;;;21.80;98.80;;;;;;5028756;28;20025;-54
2023/06/10 08:48:24;;;;;;;15.93;13.60;;;22.00;98.50;;;;;;5026857;28;20532;-51
2023/06/10 08:51:11;;;;;;;17.33;14.75;;;21.90;98.40;;;;;;5027128;28;20038;-48
2023/06/10 08:54:02;;;;;;;19.33;14.80;;;21.80;98.20;;;;;;5018338;28;20030;-49
2023/06/10 08:56:53;;;;;;;18.58;14.90;;;21.90;98.70;;;;;;5017084;28;20395;-50
2023/06/10 08:59:40;;;;;;;18.35;13.65;;;22.00;98.30;;;;;;5027496;28;20469;-50
2023/06/10 09:02:27;;;;;;;16.02;13.35;;;21.90;98.50;;;;;;5028271;28;20053;-51
2023/06/10 09:05:14;;;;;;;16.20;12.52;;;22.10;98.30;;;;;;5025901;28;20140;-50
2023/06/10 09:08:01;;;;;;;19.60;12.85;;;22.30;98.00;;;;;;5028647;28;20462;-52
2023/06/10 09:10:47;;;;;;;13.82;12.15;;;22.50;97.90;;;;;;5031166;28;20024;-50
2023/06/10 09:13:33;;;;;;;15.07;13.27;;;22.70;97.50;;;;;;5025254;28;20399;-47
2023/06/10 09:16:19;;;;;;;17.25;13.30;;;22.70;97.20;;;;;;5033052;28;20029;-47
2023/06/10 09:19:09;;;;;;;17.85;12.65;;;22.60;97.30;;;;;;5030750;28;20607;-48
2023/06/10 09:21:55;;;;;;;16.70;12.57;;;22.80;96.90;;;;;;5036495;28;20541;-49
2023/06/10 09:24:41;;;;;;;14.15;12.68;;;23.00;96.60;;;;;;5022216;28;20110;-49
2023/06/10 09:27:30;;;;;;;13.27;11.88;;;23.00;96.70;;;;;;5026668;28;20038;-50
2023/06/10 09:30:29;;;;;;;14.27;12.82;;;23.10;96.60;;;;;;5017489;28;20495;-62
2023/06/10 09:33:16;;;;;;;14.75;12.73;;;23.10;96.20;;;;;;5031168;28;20086;-48
2023/06/10 09:36:03;;;;;;;16.20;12.00;;;23.30;96.00;;;;;;5026364;28;20379;-48
2023/06/10 09:38:56;;;;;;;14.13;12.50;;;23.40;96.00;;;;;;5024711;28;20443;-48
2023/06/10 09:41:43;;;;;;;17.15;12.30;;;23.40;95.90;;;;;;5027188;28;20041;-49
2023/06/10 09:44:29;;;;;;;13.88;11.93;;;23.20;96.20;;;;;;5026596;28;20152;-50
2023/06/10 09:47:20;;;;;;;18.23;13.30;;;23.30;96.00;;;;;;5024994;28;20036;-49
2023/06/10 09:50:06;;;;;;;14.52;12.50;;;23.40;95.70;;;;;;5023194;28;20029;-49
2023/06/10 09:52:53;;;;;;;14.93;12.77;;;23.50;95.60;;;;;;5032313;28;20497;-50
2023/06/10 09:55:39;;;;;;;15.07;12.13;;;23.70;95.60;;;;;;5024382;28;20038;-53
2023/06/10 09:58:39;;;;;;;13.27;11.52;;;23.80;95.30;;;;;;5019642;28;20059;-51
2023/06/10 10:01:25;;;;;;;13.63;12.05;;;23.90;95.20;;;;;;5021778;28;20013;-53
2023/06/10 10:04:11;;;;;;;17.67;11.93;;;23.90;94.70;;;;;;5023036;28;20030;-50
2023/06/10 10:06:59;;;;;;;11.75;10.65;;;23.80;95.10;;;;;;5025284;28;20073;-45
2023/06/10 10:09:45;;;;;;;13.95;12.63;;;24.10;94.80;;;;;;5027211;28;20041;-45
2023/06/10 10:12:31;;;;;;;13.05;11.85;;;24.20;94.30;;;;;;5026866;28;20054;-48
2023/06/10 10:15:20;;;;;;;14.85;11.77;;;24.40;94.30;;;;;;5024820;28;20041;-52
2023/06/10 10:18:09;;;;;;;13.73;10.93;;;24.40;93.80;;;;;;5024105;28;20107;-51
2023/06/10 10:20:57;;;;;;;13.23;11.93;;;24.40;93.80;;;;;;5028867;28;20033;-51
2023/06/10 10:24:05;;;;;;;12.80;11.50;;;24.50;93.70;;;;;;5023827;28;20053;-49
2023/06/10 10:26:54;;;;;;;12.35;11.00;;;24.70;93.40;;;;;;5027522;28;20075;-47
2023/06/10 10:29:45;;;;;;;14.82;11.57;;;24.90;93.20;;;;;;5023500;28;20040;-53
2023/06/10 10:32:45;;;;;;;14.43;11.52;;;25.10;92.70;;;;;;5026146;28;20465;-53
2023/06/10 10:35:33;;;;;;;12.25;11.00;;;25.10;92.80;;;;;;5021437;28;20022;-48
2023/06/10 10:38:21;;;;;;;13.15;11.75;;;25.00;92.40;;;;;;5013450;28;20030;-53
2023/06/10 10:41:08;;;;;;;13.32;11.10;;;25.00;92.30;;;;;;5028360;28;20076;-46
2023/06/10 10:43:54;;;;;;;66.88;20.48;;;25.10;92.30;;;;;;5033827;28;20037;-45
2023/06/10 10:46:48;;;;;;;14.88;12.77;;;25.30;92.20;;;;;;5034226;28;20029;-49
2023/06/10 10:49:36;;;;;;;14.60;11.47;;;25.40;91.80;;;;;;5030800;28;20087;-46
2023/06/10 10:52:22;;;;;;;13.25;11.70;;;25.50;92.00;;;;;;5045371;28;20029;-45
2023/06/10 10:55:13;;;;;;;11.63;10.38;;;25.60;91.90;;;;;;5052314;28;20044;-46
2023/06/10 10:57:59;;;;;;;16.30;11.43;;;25.80;91.70;;;;;;5045708;28;20029;-50
2023/06/10 11:00:45;;;;;;;12.75;11.45;;;25.80;91.50;;;;;;5031952;28;20287;-46
2023/06/10 11:03:43;;;;;;;12.70;10.57;;;25.90;91.60;;;;;;5044200;28;20017;-45
2023/06/10 11:06:29;;;;;;;15.52;11.35;;;25.90;91.30;;;;;;5044160;28;20033;-50
2023/06/10 11:09:28;;;;;;;12.55;11.30;;;25.90;91.30;;;;;;5030535;28;20026;-46
2023/06/10 11:12:23;;;;;;;12.18;11.02;;;25.90;90.80;;;;;;5033348;28;20067;-50
2023/06/10 11:15:09;;;;;;;12.77;11.48;;;26.00;90.60;;;;;;5032745;28;20029;-49
2023/06/10 11:18:11;;;;;;;14.68;11.10;;;26.10;90.50;;;;;;5032862;28;20037;-46
2023/06/10 11:20:57;;;;;;;12.50;11.20;;;26.20;90.50;;;;;;5032674;28;20025;-47
2023/06/10 11:23:43;;;;;;;13.52;11.63;;;26.20;90.20;;;;;;5032165;28;20017;-46
2023/06/10 11:26:36;;;;;;;13.88;11.45;;;26.10;90.10;;;;;;5032254;28;20018;-46
2023/06/10 11:29:23;;;;;;;13.70;11.75;;;26.00;90.30;;;;;;5031739;28;20061;-45
2023/06/10 11:32:09;;;;;;;13.70;11.88;;;26.10;90.30;;;;;;5032898;28;20048;-51
2023/06/10 11:34:56;;;;;;;11.88;10.68;;;26.00;90.20;;;;;;5033198;28;20034;-49
2023/06/10 11:37:42;;;;;;;16.52;11.60;;;26.10;90.30;;;;;;5032331;28;20052;-46
2023/06/10 11:40:30;;;;;;;15.38;11.50;;;26.30;90.40;;;;;;5033197;28;20091;-47
2023/06/10 11:43:20;;;;;;;12.40;11.25;;;26.50;90.20;;;;;;5032199;28;20032;-44
2023/06/10 11:46:08;;;;;;;13.93;11.60;;;26.70;89.60;;;;;;5033001;28;20026;-47
2023/06/10 11:48:58;;;;;;;13.02;11.65;;;26.90;89.00;;;;;;5032459;28;20111;-48
2023/06/10 11:51:49;;;;;;;13.98;11.98;;;26.80;87.60;;;;;;5031798;28;20033;-47
2023/06/10 11:54:35;;;;;;;12.05;10.80;;;26.80;88.00;;;;;;5031777;28;20057;-45
2023/06/10 11:57:21;;;;;;;15.57;11.52;;;26.60;88.60;;;;;;5032186;28;20048;-45
2023/06/10 12:00:08;;;;;;;12.68;11.10;;;26.80;88.90;;;;;;5031682;28;20029;-48
2023/06/10 12:02:57;;;;;;;17.10;11.82;;;27.00;87.70;;;;;;5032158;28;20391;-50
2023/06/10 12:06:01;;;;;;;13.23;12.02;;;27.00;87.60;;;;;;5031872;28;20022;-46
2023/06/10 12:08:46;;;;;;;13.18;11.27;;;27.20;88.00;;;;;;5032181;28;20060;-51
2023/06/10 12:11:33;;;;;;;12.77;11.48;;;27.30;87.70;;;;;;5031911;28;20487;-48
2023/06/10 12:14:54;;;;;;;14.90;12.43;;;27.60;87.30;;;;;;5031527;28;20052;-48
2023/06/10 12:17:43;;;;;;;14.88;11.73;;;27.80;85.60;;;;;;5031252;28;20128;-48
2023/06/10 12:20:34;;;;;;;13.13;10.98;;;27.60;84.70;;;;;;5031470;28;20155;-51
2023/06/10 12:23:21;;;;;;;11.85;10.68;;;27.50;86.10;;;;;;5031143;28;20402;-47
2023/06/10 12:26:07;;;;;;;14.07;12.07;;;27.80;85.60;;;;;;5031749;28;20040;-48
2023/06/10 12:28:53;;;;;;;11.60;10.60;;;27.70;85.20;;;;;;5031672;28;20037;-51
2023/06/10 12:32:02;;;;;;;13.43;12.07;;;27.80;83.60;;;;;;5031092;28;20091;-51
2023/06/10 12:34:48;;;;;;;14.93;10.88;;;28.10;82.70;;;;;;5031117;28;20025;-51
2023/06/10 12:37:35;;;;;;;12.40;10.80;;;28.30;82.00;;;;;;5031179;28;20105;-50
2023/06/10 12:40:29;;;;;;;13.77;11.95;;;28.50;82.10;;;;;;5031077;28;20068;-49
2023/06/10 12:43:25;;;;;;;;;;;28.80;81.40;;;;;;5032645;28;20021;-48
2023/06/10 12:46:12;;;;;;;12.48;11.27;;;28.70;78.50;;;;;;5032177;28;19905;-48
2023/06/10 12:48:58;;;;;;;12.57;10.88;;;28.70;78.20;;;;;;5034214;28;20044;-51
2023/06/10 12:51:44;;;;;;;14.35;11.77;;;28.80;78.90;;;;;;5033123;28;20033;-49
2023/06/10 12:54:30;;;;;;;12.05;11.05;;;28.90;78.30;;;;;;5031312;28;20117;-48
2023/06/10 12:57:16;;;;;;;13.27;11.55;;;28.90;78.00;;;;;;5031646;28;20034;-48
2023/06/10 13:00:04;;;;;;;13.38;11.90;;;29.10;78.00;;;;;;5031344;28;20033;-48
2023/06/10 13:02:50;;;;;;;12.15;11.05;;;29.20;76.80;;;;;;5031250;28;20030;-51
2023/06/10 13:05:38;;;;;;;13.05;11.73;;;28.60;77.90;;;;;;5031830;28;20034;-49
2023/06/10 13:08:24;;;;;;;11.80;10.57;;;28.10;78.40;;;;;;5030522;28;20037;-50
2023/06/10 13:11:10;;;;;;;12.27;10.95;;;28.00;78.40;;;;;;5031623;28;20121;-48
2023/06/10 13:13:56;;;;;;;14.52;11.65;;;28.20;78.30;;;;;;5030116;28;20114;-50
2023/06/10 13:16:44;;;;;;;12.10;10.88;;;28.60;78.20;;;;;;5028391;28;20032;-50
2023/06/10 13:19:30;;;;;;;12.18;10.52;;;28.50;77.90;;;;;;5022890;28;20031;-48
2023/06/10 13:22:16;;;;;;;12.32;11.13;;;28.30;77.70;;;;;;5027461;28;20032;-50
2023/06/10 13:25:07;;;;;;;12.15;10.50;;;28.10;77.70;;;;;;5023567;28;20034;-49
2023/06/10 13:27:53;;;;;;;10.85;10.00;;;27.90;77.40;;;;;;5021982;28;20022;-47
2023/06/10 13:30:39;;;;;;;12.35;11.10;;;27.80;77.90;;;;;;5021755;28;20096;-47
2023/06/10 13:33:25;;;;;;;10.95;9.93;;;27.70;79.00;;;;;;5020651;28;20113;-47
2023/06/10 13:36:12;;;;;;;10.27;9.23;;;27.60;78.80;;;;;;5021509;28;20108;-48
2023/06/10 13:38:58;;;;;;;9.77;8.88;;;27.60;76.90;;;;;;5022985;28;20033;-49
2023/06/10 13:41:43;;;;;;;9.25;8.35;;;27.60;75.60;;;;;;5027463;28;20038;-48
2023/06/10 13:44:33;;;;;;;8.75;7.95;;;27.60;74.70;;;;;;5014245;28;20029;-51
2023/06/10 13:47:19;;;;;;;8.75;7.85;;;27.90;74.20;;;;;;5025744;28;20029;-49
2023/06/10 13:50:06;;;;;;;8.82;7.93;;;28.30;73.20;;;;;;5033208;28;20034;-50
2023/06/10 13:52:52;;;;;;;9.10;8.30;;;28.40;73.30;;;;;;5024910;28;20045;-48
2023/06/10 13:55:38;;;;;;;9.68;8.80;;;28.40;74.10;;;;;;5035068;28;20036;-50
2023/06/10 13:58:24;;;;;;;9.95;8.93;;;28.40;75.10;;;;;;5034328;28;20029;-48
2023/06/10 14:01:10;;;;;;;13.13;8.95;;;28.40;75.40;;;;;;5025914;28;20032;-49
2023/06/10 14:03:55;;;;;;;9.85;8.85;;;28.50;75.50;;;;;;5023948;28;20101;-50
2023/06/10 14:06:42;;;;;;;10.43;9.43;;;28.40;73.80;;;;;;5021069;28;20080;-54
2023/06/10 14:09:28;;;;;;;10.07;9.05;;;28.00;73.70;;;;;;5027489;28;20081;-53
2023/06/10 14:12:14;;;;;;;11.15;10.05;;;27.70;76.20;;;;;;5023383;28;20503;-50
2023/06/10 14:15:00;;;;;;;11.38;9.65;;;26.80;80.80;;;;;;5033990;28;20029;-49